createdAt,value
2022-08-26T00:01:29.075Z,100117.25
2022-08-26T00:03:56.957Z,100116.78
2022-08-26T00:06:27.226Z,100120.47
2022-08-26T00:08:54.092Z,100118.66
2022-08-26T00:11:26.555Z,100116.38
2022-08-26T00:13:57.416Z,100121.13
2022-08-26T00:16:26.554Z,100125.13
2022-08-26T00:18:54.586Z,100125.28
2022-08-26T00:21:21.228Z,100128.78
2022-08-26T00:23:48.132Z,100123.41
2022-08-26T00:26:15.080Z,100122.56
2022-08-26T00:28:41.770Z,100121.44
2022-08-26T00:31:11.088Z,100117.81
2022-08-26T00:33:39.124Z,100115.19
2022-08-26T00:36:07.076Z,100126.00
2022-08-26T00:38:35.181Z,100123.91
2022-08-26T00:41:05.191Z,100112.41
2022-08-26T00:43:46.064Z,100113.94
2022-08-26T00:46:17.479Z,100117.28
2022-08-26T00:48:47.820Z,100125.84
2022-08-26T00:51:19.434Z,100116.63
2022-08-26T00:53:52.639Z,100113.56
2022-08-26T00:56:33.004Z,100114.72
2022-08-26T00:59:03.605Z,100115.91
2022-08-26T01:01:31.193Z,100105.59
2022-08-26T01:03:59.945Z,100112.91
2022-08-26T01:06:28.038Z,100113.06
2022-08-26T01:08:56.074Z,100112.28
2022-08-26T01:11:24.170Z,100117.34
2022-08-26T01:14:00.019Z,100118.78
2022-08-26T01:16:26.863Z,100120.16
2022-08-26T01:18:58.539Z,100118.84
2022-08-26T01:21:27.255Z,100122.00
2022-08-26T01:23:57.275Z,100117.81
2022-08-26T01:26:32.259Z,100111.72
2022-08-26T01:29:00.985Z,100119.09
2022-08-26T01:31:31.409Z,100115.31
2022-08-26T01:34:14.093Z,100123.38
2022-08-26T01:36:41.183Z,100115.84
2022-08-26T01:39:09.193Z,100115.88
2022-08-26T01:41:38.653Z,100122.97
2022-08-26T01:44:07.518Z,100118.66
2022-08-26T01:46:36.914Z,100130.66
2022-08-26T01:49:06.533Z,100128.19
2022-08-26T01:51:37.247Z,100129.78
2022-08-26T01:54:05.913Z,100131.94
2022-08-26T01:56:33.477Z,100128.66
2022-08-26T01:59:06.634Z,100127.34
2022-08-26T02:01:33.796Z,100122.97
2022-08-26T02:04:13.480Z,100128.09
2022-08-26T02:06:41.152Z,100120.75
2022-08-26T02:09:08.294Z,100119.66
2022-08-26T02:11:36.848Z,100121.31
2022-08-26T02:14:28.500Z,100119.94
2022-08-26T02:16:56.043Z,100111.91
2022-08-26T02:19:27.780Z,100112.38
2022-08-26T02:21:54.498Z,100113.34
2022-08-26T02:24:27.862Z,100120.75
2022-08-26T02:26:58.542Z,100117.22
2022-08-26T02:29:36.168Z,100116.41
2022-08-26T02:32:07.677Z,100118.88
2022-08-26T02:34:34.867Z,100120.22
2022-08-26T02:37:04.555Z,100122.13
2022-08-26T02:39:33.103Z,100111.44
2022-08-26T02:41:59.932Z,100114.34
2022-08-26T02:44:27.312Z,100112.91
2022-08-26T02:46:54.648Z,100108.88
2022-08-26T02:49:23.572Z,100112.25
2022-08-26T02:51:51.048Z,100114.78
2022-08-26T02:54:21.219Z,100109.31
2022-08-26T02:56:48.119Z,100113.94
2022-08-26T02:59:15.409Z,100112.09
2022-08-26T03:01:42.622Z,100105.84
2022-08-26T03:04:11.744Z,100106.72
2022-08-26T03:06:41.465Z,100100.72
2022-08-26T03:09:08.962Z,100103.47
2022-08-26T03:11:36.724Z,100105.31
2022-08-26T03:14:04.398Z,100097.03
2022-08-26T03:16:35.680Z,100093.75
2022-08-26T03:19:04.133Z,100094.31
2022-08-26T03:21:31.390Z,100097.03
2022-08-26T03:23:58.927Z,100095.91
2022-08-26T03:26:28.237Z,100099.66
2022-08-26T03:29:14.416Z,100088.78
2022-08-26T03:31:41.409Z,100098.91
2022-08-26T03:34:09.646Z,100083.16
2022-08-26T03:36:38.654Z,100095.38
2022-08-26T03:39:06.051Z,100085.81
2022-08-26T03:41:34.948Z,100081.94
2022-08-26T03:44:02.437Z,100086.94
2022-08-26T03:46:31.688Z,100085.06
2022-08-26T03:48:58.672Z,100080.47
2022-08-26T03:51:25.944Z,100081.06
2022-08-26T03:53:53.070Z,100086.31
2022-08-26T03:56:19.813Z,100082.25
2022-08-26T03:58:46.481Z,100081.47
2022-08-26T04:01:16.200Z,100077.16
2022-08-26T04:04:00.373Z,100085.63
2022-08-26T04:06:34.821Z,100086.44
2022-08-26T04:09:05.263Z,100088.91
2022-08-26T04:11:34.629Z,100086.47
2022-08-26T04:14:05.800Z,100084.28
2022-08-26T04:16:33.115Z,100090.25
2022-08-26T04:19:00.017Z,100089.19
2022-08-26T04:21:28.547Z,100086.75
2022-08-26T04:23:56.077Z,100081.56
2022-08-26T04:26:25.807Z,100086.19
2022-08-26T04:28:54.726Z,100082.94
2022-08-26T04:31:21.964Z,100084.56
2022-08-26T04:33:50.011Z,100096.56
2022-08-26T04:36:20.076Z,100088.38
2022-08-26T04:38:47.632Z,100085.66
2022-08-26T04:41:15.560Z,100087.00
2022-08-26T04:43:44.694Z,100096.00
2022-08-26T04:46:13.193Z,100095.72
2022-08-26T04:48:41.196Z,100093.00
2022-08-26T04:51:09.703Z,100090.25
2022-08-26T04:53:37.310Z,100095.94
2022-08-26T04:56:04.735Z,100094.00
2022-08-26T04:58:32.022Z,100099.03
2022-08-26T05:00:58.701Z,100098.56
2022-08-26T05:03:27.375Z,100087.75
2022-08-26T05:05:58.213Z,100084.00
2022-08-26T05:08:27.650Z,100074.09
2022-08-26T05:10:56.088Z,100078.88
2022-08-26T05:13:26.182Z,100081.00
2022-08-26T05:15:53.132Z,100080.66
2022-08-26T05:18:23.085Z,100086.66
2022-08-26T05:20:54.003Z,100084.50
2022-08-26T05:23:25.038Z,100073.84
2022-08-26T05:25:58.372Z,100080.81
2022-08-26T05:28:28.337Z,100069.38
2022-08-26T05:30:55.820Z,100077.09
2022-08-26T05:33:23.027Z,100081.84
2022-08-26T05:35:50.189Z,100082.63
2022-08-26T05:38:19.291Z,100070.88
2022-08-26T05:40:52.619Z,100085.94
2022-08-26T05:43:20.268Z,100080.72
2022-08-26T05:45:49.232Z,100075.94
2022-08-26T05:48:18.442Z,100073.31
2022-08-26T05:50:51.776Z,100070.81
2022-08-26T05:53:20.785Z,100061.97
2022-08-26T05:55:50.713Z,100057.84
2022-08-26T05:58:20.217Z,100064.31
2022-08-26T06:00:57.028Z,100058.75
2022-08-26T06:03:23.677Z,100072.03
2022-08-26T06:05:55.331Z,100082.28
2022-08-26T06:08:22.340Z,100092.75
2022-08-26T06:10:53.396Z,100085.31
2022-08-26T06:13:26.810Z,100085.28
2022-08-26T06:15:54.577Z,100095.25
2022-08-26T06:18:27.425Z,100091.94
2022-08-26T06:20:57.866Z,100095.97
2022-08-26T06:23:45.219Z,100098.94
2022-08-26T06:26:12.935Z,100086.19
2022-08-26T06:28:39.572Z,100079.41
2022-08-26T06:31:08.206Z,100069.91
2022-08-26T06:33:35.321Z,100070.09
2022-08-26T06:36:02.116Z,100081.03
2022-08-26T06:38:28.781Z,100076.50
2022-08-26T06:40:58.515Z,100080.31
2022-08-26T06:43:27.679Z,100075.44
2022-08-26T06:46:03.788Z,100079.56
2022-08-26T06:48:32.156Z,100078.25
2022-08-26T06:51:13.551Z,100073.59
2022-08-26T06:53:41.885Z,100077.47
2022-08-26T06:56:11.267Z,100075.78
2022-08-26T06:58:40.879Z,100083.00
2022-08-26T07:01:20.117Z,100085.28
2022-08-26T07:03:48.644Z,100085.00
2022-08-26T07:06:15.792Z,100086.72
2022-08-26T07:08:43.261Z,100080.47
2022-08-26T07:11:11.191Z,100085.78
2022-08-26T07:13:39.080Z,100086.28
2022-08-26T07:16:12.558Z,100087.03
2022-08-26T07:18:42.156Z,100093.06
2022-08-26T07:21:13.160Z,100099.38
2022-08-26T07:23:41.433Z,100098.63
2022-08-26T07:26:11.740Z,100094.44
2022-08-26T07:28:39.421Z,100098.25
2022-08-26T07:31:07.513Z,100102.53
2022-08-26T07:33:37.927Z,100104.88
2022-08-26T07:36:07.267Z,100107.41
2022-08-26T07:38:35.163Z,100108.75
2022-08-26T07:41:02.180Z,100115.06
2022-08-26T07:43:29.618Z,100113.88
2022-08-26T07:45:56.768Z,100110.19
2022-08-26T07:48:24.134Z,100114.06
2022-08-26T07:50:53.759Z,100113.94
2022-08-26T07:53:21.733Z,100125.22
2022-08-26T07:55:51.136Z,100127.09
2022-08-26T07:58:18.929Z,100134.56
2022-08-26T08:00:46.143Z,100131.81
2022-08-26T08:03:12.900Z,100130.78
2022-08-26T08:05:41.428Z,100130.28
2022-08-26T08:08:26.515Z,100128.22
2022-08-26T08:10:55.658Z,100134.38
2022-08-26T08:13:22.996Z,100134.28
2022-08-26T08:15:50.433Z,100141.19
2022-08-26T08:18:18.089Z,100142.50
2022-08-26T08:20:59.196Z,100138.19
2022-08-26T08:23:25.970Z,100133.28
2022-08-26T08:26:01.634Z,100133.88
2022-08-26T08:28:28.730Z,100136.53
2022-08-26T08:30:56.418Z,100133.88
2022-08-26T08:33:23.209Z,100135.94
2022-08-26T08:35:49.838Z,100123.31
2022-08-26T08:38:16.923Z,100127.75
2022-08-26T08:40:45.501Z,100123.63
2022-08-26T08:43:14.674Z,100122.69
2022-08-26T08:45:50.178Z,100131.63
2022-08-26T08:48:29.645Z,100133.03
2022-08-26T08:51:04.945Z,100134.94
2022-08-26T08:53:41.611Z,100138.31
2022-08-26T08:56:38.139Z,100130.38
2022-08-26T08:59:22.798Z,100130.72
2022-08-26T09:01:55.935Z,100124.03
2022-08-26T09:04:41.276Z,100131.06
2022-08-26T09:07:12.772Z,100123.06
2022-08-26T09:09:44.326Z,100125.00
2022-08-26T09:12:16.146Z,100120.31
2022-08-26T09:14:44.643Z,100120.16
2022-08-26T09:17:24.863Z,100122.53
2022-08-26T09:19:56.015Z,100116.69
2022-08-26T09:22:31.559Z,100117.19
2022-08-26T09:24:58.231Z,100117.66
2022-08-26T09:27:51.305Z,100118.75
2022-08-26T09:30:30.949Z,100114.38
2022-08-26T09:33:00.994Z,100114.38
2022-08-26T09:35:34.148Z,100109.53
2022-08-26T09:38:00.845Z,100112.09
2022-08-26T09:40:36.293Z,100105.56
2022-08-26T09:43:22.161Z,100101.97
2022-08-26T09:46:10.628Z,100104.13
2022-08-26T09:48:40.625Z,100100.94
2022-08-26T09:51:31.495Z,100101.69
2022-08-26T09:54:05.783Z,100102.00
2022-08-26T09:56:37.491Z,100098.72
2022-08-26T09:59:06.574Z,100100.09
2022-08-26T10:01:42.528Z,100095.59
2022-08-26T10:04:14.091Z,100093.97
2022-08-26T10:07:05.341Z,100090.63
2022-08-26T10:09:40.888Z,100090.28
2022-08-26T10:12:15.402Z,100096.06
2022-08-26T10:15:04.096Z,100084.38
2022-08-26T10:17:43.789Z,100086.69
2022-08-26T10:20:23.346Z,100076.59
2022-08-26T10:23:01.216Z,100076.28
2022-08-26T10:25:46.279Z,100071.19
2022-08-26T10:28:19.355Z,100064.88
2022-08-26T10:31:18.599Z,100057.28
2022-08-26T10:33:46.897Z,100055.03
2022-08-26T10:36:46.947Z,100065.28
2022-08-26T10:39:37.199Z,100056.25
2022-08-26T10:42:14.348Z,100062.22
2022-08-26T10:44:44.355Z,100063.00
2022-08-26T10:47:18.502Z,100067.59
2022-08-26T10:49:47.668Z,100062.19
2022-08-26T10:52:20.947Z,100074.84
2022-08-26T10:54:50.141Z,100067.38
2022-08-26T10:57:43.972Z,100069.25
2022-08-26T11:00:38.559Z,100062.97
2022-08-26T11:03:38.843Z,100062.69
2022-08-26T11:06:25.646Z,100056.50
2022-08-26T11:08:57.943Z,100057.28
2022-08-26T11:11:41.522Z,100054.44
2022-08-26T11:14:41.119Z,100054.25
2022-08-26T11:17:46.398Z,100051.72
2022-08-26T11:20:22.199Z,100053.00
2022-08-26T11:22:51.585Z,100049.81
2022-08-26T11:25:20.632Z,100041.75
2022-08-26T11:27:50.807Z,100047.06
2022-08-26T11:30:21.166Z,100045.63
2022-08-26T11:32:57.224Z,100034.28
2022-08-26T11:35:24.559Z,100047.06
2022-08-26T11:37:57.307Z,100031.25
2022-08-26T11:40:32.767Z,100037.72
2022-08-26T11:43:07.104Z,100032.69
2022-08-26T11:45:37.569Z,100022.47
2022-08-26T11:48:36.849Z,100025.78
2022-08-26T11:51:21.948Z,100016.66
2022-08-26T11:54:26.933Z,100010.16
2022-08-26T11:57:11.673Z,100000.88
2022-08-26T11:59:40.208Z,99996.19
2022-08-26T12:02:14.891Z,99985.56
2022-08-26T12:04:43.656Z,99989.75
2022-08-26T12:07:10.425Z,99988.56
2022-08-26T12:09:52.620Z,99984.47
2022-08-26T12:12:27.078Z,99983.22
2022-08-26T12:15:16.774Z,99979.88
2022-08-26T12:17:45.418Z,99989.66
2022-08-26T12:23:46.883Z,99995.84
2022-08-26T12:26:22.550Z,99987.03
2022-08-26T12:28:57.515Z,99971.97
2022-08-26T12:31:37.575Z,99973.69
2022-08-26T12:34:18.210Z,99961.75
2022-08-26T12:36:56.647Z,99968.41
2022-08-26T12:39:36.689Z,99966.47
2022-08-26T12:42:03.287Z,99962.78
2022-08-26T12:44:38.695Z,99953.34
2022-08-26T12:47:35.161Z,99952.41
2022-08-26T12:50:09.947Z,99964.81
2022-08-26T12:53:25.068Z,99952.75
2022-08-26T12:56:00.127Z,99962.72
2022-08-26T12:58:38.713Z,99955.50
2022-08-26T13:01:08.909Z,99957.00
2022-08-26T13:03:38.634Z,99950.69
2022-08-26T13:06:09.579Z,99967.72
2022-08-26T13:08:48.451Z,99962.91
2022-08-26T13:11:35.359Z,99973.72
2022-08-26T13:14:18.348Z,99984.06
2022-08-26T13:16:51.447Z,99973.00
2022-08-26T13:19:20.537Z,100001.19
2022-08-26T13:21:55.325Z,100031.44
2022-08-26T13:24:28.005Z,100044.09
2022-08-26T13:26:55.063Z,100048.44
2022-08-26T13:29:24.324Z,100051.28
2022-08-26T13:31:51.774Z,100047.69
2022-08-26T13:34:20.223Z,100031.97
2022-08-26T13:36:56.562Z,100028.53
2022-08-26T13:39:24.252Z,100016.53
2022-08-26T13:41:51.433Z,100017.16
2022-08-26T13:44:18.635Z,100003.53
2022-08-26T13:46:48.707Z,99998.06
2022-08-26T13:49:15.507Z,99999.16
2022-08-26T13:51:42.173Z,99982.31
2022-08-26T13:54:08.960Z,99985.19
2022-08-26T13:56:36.211Z,99981.22
2022-08-26T13:59:05.756Z,99983.56
2022-08-26T14:01:34.519Z,99990.34
2022-08-26T14:04:14.719Z,99986.09
2022-08-26T14:06:45.009Z,99984.06
2022-08-26T14:09:23.914Z,99972.38
2022-08-26T14:11:54.828Z,99971.03
2022-08-26T14:14:29.237Z,99966.28
2022-08-26T14:16:59.581Z,99975.28
2022-08-26T14:19:32.130Z,99988.84
2022-08-26T14:22:57.389Z,99990.59
2022-08-26T14:29:32.380Z,99971.56
2022-08-26T14:35:59.762Z,99971.66
2022-08-26T14:38:36.522Z,99970.63
2022-08-26T14:41:06.134Z,99961.75
2022-08-26T14:43:33.887Z,99958.91
2022-08-26T14:46:01.163Z,99953.81
2022-08-26T14:48:28.003Z,99955.75
2022-08-26T14:51:00.100Z,99960.81
2022-08-26T14:53:51.664Z,99965.16
2022-08-26T14:56:18.426Z,99960.38
2022-08-26T14:58:45.889Z,99967.41
2022-08-26T15:01:15.096Z,99988.00
2022-08-26T15:03:42.671Z,99980.25
2022-08-26T15:06:10.399Z,99988.81
2022-08-26T15:08:37.332Z,100008.00
2022-08-26T15:11:08.472Z,100000.56
2022-08-26T15:13:35.636Z,100011.16
2022-08-26T15:16:02.631Z,100017.88
2022-08-26T15:18:29.505Z,100028.50
2022-08-26T15:20:56.232Z,100045.13
2022-08-26T15:23:25.027Z,100049.22
2022-08-26T15:25:51.689Z,100056.88
2022-08-26T15:28:18.343Z,100051.50
2022-08-26T15:30:44.951Z,100054.34
2022-08-26T15:33:15.346Z,100049.16
2022-08-26T15:35:43.001Z,100052.56
2022-08-26T15:38:10.707Z,100069.69
2022-08-26T15:40:37.772Z,100098.09
2022-08-26T15:43:18.424Z,100105.41
2022-08-26T15:45:51.841Z,100116.97
2022-08-26T15:48:19.004Z,100133.00
2022-08-26T15:50:51.843Z,100130.41
2022-08-26T15:53:18.494Z,100141.06
2022-08-26T15:55:45.246Z,100157.44
2022-08-26T15:58:12.020Z,100133.81
2022-08-26T16:00:39.843Z,100141.31
2022-08-26T16:03:09.352Z,100141.84
2022-08-26T16:05:38.273Z,100137.19
2022-08-26T16:08:06.378Z,100117.41
2022-08-26T16:10:39.315Z,100113.75
2022-08-26T16:13:06.247Z,100108.31
2022-08-26T16:15:33.738Z,100105.84
2022-08-26T16:18:01.935Z,100110.00
2022-08-26T16:20:29.638Z,100102.19
2022-08-26T16:22:56.396Z,100102.69
2022-08-26T16:25:23.172Z,100096.16
2022-08-26T16:27:51.767Z,100090.41
2022-08-26T16:30:21.706Z,100083.06
2022-08-26T16:32:48.812Z,100088.22
2022-08-26T16:35:16.088Z,100098.78
2022-08-26T16:37:42.833Z,100098.22
2022-08-26T16:40:10.305Z,100103.44
2022-08-26T16:42:37.683Z,100098.53
2022-08-26T16:45:05.314Z,100107.03
2022-08-26T16:47:32.999Z,100104.09
2022-08-26T16:50:00.025Z,100099.19
2022-08-26T16:52:26.779Z,100112.81
2022-08-26T16:54:58.412Z,100116.91
2022-08-26T16:57:25.030Z,100134.84
2022-08-26T16:59:51.748Z,100144.34
2022-08-26T17:02:18.487Z,100143.78
2022-08-26T17:04:47.153Z,100135.59
2022-08-26T17:07:17.057Z,100139.47
2022-08-26T17:09:43.736Z,100146.00
2022-08-26T17:12:10.339Z,100146.88
2022-08-26T17:14:37.222Z,100155.56
2022-08-26T17:17:05.956Z,100165.66
2022-08-26T17:19:34.534Z,100173.28
2022-08-26T17:22:08.865Z,100177.88
2022-08-26T17:24:35.500Z,100182.25
2022-08-26T17:27:02.119Z,100192.88
2022-08-26T17:29:28.860Z,100184.94
2022-08-26T17:31:55.516Z,100190.09
2022-08-26T17:34:22.781Z,100194.44
2022-08-26T17:36:49.581Z,100194.19
2022-08-26T17:39:16.468Z,100200.41
2022-08-26T17:41:43.557Z,100205.31
2022-08-26T17:44:10.216Z,100192.47
2022-08-26T17:46:38.526Z,100197.66
2022-08-26T17:49:07.101Z,100186.47
2022-08-26T17:51:33.817Z,100178.59
2022-08-26T17:54:00.461Z,100181.59
2022-08-26T17:56:31.668Z,100186.22
2022-08-26T17:59:03.532Z,100192.44
2022-08-26T18:01:31.292Z,100192.44
2022-08-26T18:04:01.048Z,100185.31
2022-08-26T18:06:28.843Z,100185.53
2022-08-26T18:08:55.483Z,100190.41
2022-08-26T18:11:25.434Z,100193.13
2022-08-26T18:13:52.147Z,100188.69
2022-08-26T18:16:21.405Z,100194.09
2022-08-26T18:18:49.102Z,100190.09
2022-08-26T18:21:19.063Z,100191.16
2022-08-26T18:23:46.932Z,100200.84
2022-08-26T18:26:22.930Z,100198.38
2022-08-26T18:28:49.687Z,100198.69
2022-08-26T18:31:16.654Z,100199.78
2022-08-26T18:33:43.292Z,100202.06
2022-08-26T18:36:27.922Z,100205.31
2022-08-26T18:38:55.341Z,100211.03
2022-08-26T18:41:23.932Z,100210.50
2022-08-26T18:43:53.002Z,100214.59
2022-08-26T18:46:21.414Z,100212.13
2022-08-26T18:48:49.098Z,100208.34
2022-08-26T18:51:26.787Z,100210.00
2022-08-26T18:53:53.496Z,100210.34
2022-08-26T18:56:20.247Z,100211.75
2022-08-26T18:58:47.114Z,100213.97
2022-08-26T19:01:14.261Z,100218.59
2022-08-26T19:03:41.127Z,100219.16
2022-08-26T19:06:11.332Z,100226.81
2022-08-26T19:08:37.997Z,100221.63
2022-08-26T19:11:11.271Z,100218.66
2022-08-26T19:13:44.134Z,100215.41
2022-08-26T19:16:22.611Z,100216.75
2022-08-26T19:18:50.379Z,100211.59
2022-08-26T19:21:17.116Z,100206.97
2022-08-26T19:23:43.802Z,100211.63
2022-08-26T19:26:11.252Z,100215.16
2022-08-26T19:28:40.777Z,100216.25
2022-08-26T19:31:10.488Z,100205.13
2022-08-26T19:33:43.075Z,100209.75
2022-08-26T19:36:17.388Z,100202.13
2022-08-26T19:38:44.747Z,100196.94
2022-08-26T19:41:16.396Z,100207.28
2022-08-26T19:43:43.070Z,100215.72
2022-08-26T19:46:18.759Z,100208.66
2022-08-26T19:48:45.925Z,100208.38
2022-08-26T19:51:19.321Z,100197.75
2022-08-26T19:53:47.369Z,100209.47
2022-08-26T19:56:14.707Z,100204.00
2022-08-26T19:58:41.889Z,100214.38
2022-08-26T20:01:08.790Z,100213.00
2022-08-26T20:03:39.452Z,100213.00
2022-08-26T20:06:08.235Z,100218.19
2022-08-26T20:08:36.091Z,100214.91
2022-08-26T20:11:07.203Z,100209.47
2022-08-26T20:13:33.862Z,100221.97
2022-08-26T20:16:03.797Z,100223.34
2022-08-26T20:18:48.971Z,100213.00
2022-08-26T20:21:27.771Z,100223.88
2022-08-26T20:24:05.929Z,100223.31
2022-08-26T20:26:35.251Z,100222.25
2022-08-26T20:29:02.260Z,100224.66
2022-08-26T20:31:29.111Z,100231.72
2022-08-26T20:33:55.788Z,100229.78
2022-08-26T20:36:24.488Z,100242.59
2022-08-26T20:38:51.200Z,100237.94
2022-08-26T20:41:18.296Z,100239.56
2022-08-26T20:43:46.155Z,100238.25
2022-08-26T20:46:18.783Z,100237.94
2022-08-26T20:48:48.472Z,100246.94
2022-08-26T20:51:16.450Z,100249.34
2022-08-26T20:53:44.266Z,100251.81
2022-08-26T20:56:15.230Z,100249.03
2022-08-26T20:58:42.499Z,100256.66
2022-08-26T21:01:17.890Z,100258.56
2022-08-26T21:03:45.002Z,100253.66
2022-08-26T21:06:12.336Z,100252.28
2022-08-26T21:08:42.523Z,100257.19
2022-08-26T21:11:10.385Z,100249.84
2022-08-26T21:13:48.578Z,100241.94
2022-08-26T21:16:25.364Z,100243.56
2022-08-26T21:18:52.663Z,100250.38
2022-08-26T21:21:19.997Z,100248.75
2022-08-26T21:23:51.870Z,100261.22
2022-08-26T21:26:18.496Z,100267.25
2022-08-26T21:28:46.211Z,100268.91
2022-08-26T21:31:15.741Z,100270.22
2022-08-26T21:33:44.137Z,100277.06
2022-08-26T21:36:12.051Z,100274.81
2022-08-26T21:38:39.403Z,100268.56
2022-08-26T21:41:19.287Z,100276.69
2022-08-26T21:43:47.050Z,100274.84
2022-08-26T21:46:19.148Z,100272.34
2022-08-26T21:49:07.349Z,100283.25
2022-08-26T21:51:39.623Z,100276.41
2022-08-26T21:54:10.840Z,100282.63
2022-08-26T21:56:41.428Z,100284.75
2022-08-26T21:59:08.403Z,100287.72
2022-08-26T22:01:35.966Z,100294.06
2022-08-26T22:04:04.044Z,100282.06
2022-08-26T22:06:31.932Z,100277.38
2022-08-26T22:08:59.079Z,100283.91
2022-08-26T22:11:27.320Z,100281.56
2022-08-26T22:13:55.533Z,100278.78
2022-08-26T22:16:22.397Z,100278.75
2022-08-26T22:18:49.124Z,100280.19
2022-08-26T22:21:18.888Z,100277.69
2022-08-26T22:23:46.214Z,100282.38
2022-08-26T22:26:15.485Z,100273.53
2022-08-26T22:28:52.082Z,100273.50
2022-08-26T22:31:28.198Z,100277.81
2022-08-26T22:34:06.480Z,100279.94
2022-08-26T22:36:33.265Z,100285.16
2022-08-26T22:39:00.967Z,100288.16
2022-08-26T22:41:27.971Z,100286.56
2022-08-26T22:43:54.639Z,100286.03
2022-08-26T22:46:26.412Z,100286.28
2022-08-26T22:48:54.215Z,100286.28
2022-08-26T22:51:21.720Z,100275.50
2022-08-26T22:53:48.358Z,100277.91
2022-08-26T22:56:15.191Z,100275.97
2022-08-26T22:58:41.899Z,100274.00
2022-08-26T23:01:08.706Z,100278.09
2022-08-26T23:03:35.704Z,100273.19
2022-08-26T23:06:06.121Z,100278.84
2022-08-26T23:08:32.799Z,100280.75
2022-08-26T23:11:01.552Z,100286.84
2022-08-26T23:13:33.545Z,100283.09
2022-08-26T23:16:06.043Z,100280.03
2022-08-26T23:18:32.849Z,100278.88
2022-08-26T23:20:59.534Z,100274.72
2022-08-26T23:23:29.174Z,100276.44
2022-08-26T23:25:55.838Z,100270.09
2022-08-26T23:28:24.179Z,100269.19
2022-08-26T23:30:50.804Z,100275.09
2022-08-26T23:33:17.484Z,100272.88
2022-08-26T23:35:44.114Z,100271.38
2022-08-26T23:38:13.393Z,100269.72
2022-08-26T23:40:41.070Z,100260.72
2022-08-26T23:43:10.533Z,100268.03
2022-08-26T23:45:37.228Z,100258.41
2022-08-26T23:48:05.108Z,100262.09
2022-08-26T23:50:50.770Z,100258.63
2022-08-26T23:53:21.726Z,100257.56
2022-08-26T23:55:51.582Z,100248.88
2022-08-26T23:58:19.888Z,100248.88
